Time;durP1;ratioP1;P1;durP2;ratioP2;P2;SDS_P1;SDS_P2;PMS_P1;PMS_P2;Temp;Humidity;BMP_temperature;BMP_pressure;BME280_temperature;BME280_humidity;BME280_pressure;Samples;Min_cycle;Max_cycle;Signal;HPM_P1;HPM_P2
2022/11/25 00:01:37;;;;;;;23.70;4.22;;;;;;;8.27;100.00;100758.28;5103481;28;20028;-79
2022/11/25 00:04:02;;;;;;;23.17;4.35;;;;;;;8.35;100.00;100756.66;5104190;28;20106;-78
2022/11/25 00:06:33;;;;;;;24.52;4.68;;;;;;;8.39;100.00;100755.81;5100694;28;20143;-77
2022/11/25 00:09:02;;;;;;;22.90;4.20;;;;;;;8.44;100.00;100758.50;5104581;28;20035;-74
2022/11/25 00:11:28;;;;;;;23.42;4.05;;;;;;;8.50;100.00;100755.97;5102328;28;20012;-78
2022/11/25 00:13:55;;;;;;;22.10;4.03;;;;;;;8.53;100.00;100753.38;5105154;28;20077;-78
2022/11/25 00:16:22;;;;;;;23.17;4.50;;;;;;;8.58;100.00;100748.16;5097632;28;20548;-79
2022/11/25 00:18:50;;;;;;;20.42;3.80;;;;;;;8.65;100.00;100747.34;5105079;28;20467;-78
2022/11/25 00:21:19;;;;;;;20.02;3.78;;;;;;;8.65;100.00;100748.25;5101960;28;20024;-78
2022/11/25 00:23:50;;;;;;;21.00;4.00;;;;;;;8.66;100.00;100741.22;5104217;28;20024;-78
2022/11/25 00:26:15;;;;;;;23.20;4.25;;;;;;;8.68;100.00;100739.50;5102541;28;20028;-79
2022/11/25 00:28:45;;;;;;;20.95;3.90;;;;;;;8.68;100.00;100732.47;5103699;28;20114;-78
2022/11/25 00:31:16;;;;;;;21.05;4.00;;;;;;;8.67;100.00;100735.97;5102877;28;20024;-78
2022/11/25 00:33:42;;;;;;;21.50;3.92;;;;;;;8.66;100.00;100744.72;5103912;28;20032;-78
2022/11/25 00:36:26;;;;;;;22.75;3.95;;;;;;;8.70;100.00;100737.75;5102581;28;20077;-79
2022/11/25 00:38:53;;;;;;;21.25;4.40;;;;;;;8.70;100.00;100730.72;5097384;28;20110;-78
2022/11/25 00:46:46;;;;;;;22.05;4.13;;;;;;;8.60;100.00;100722.72;5101924;28;20120;-68
2022/11/25 00:49:12;;;;;;;22.15;4.18;;;;;;;8.59;100.00;100716.56;5102572;28;20457;-67
2022/11/25 00:51:37;;;;;;;20.33;4.13;;;;;;;8.53;100.00;100721.75;5101568;28;20032;-68
2022/11/25 00:54:03;;;;;;;22.90;4.18;;;;;;;8.49;100.00;100723.47;5102110;28;20028;-68
2022/11/25 00:56:29;;;;;;;22.85;4.35;;;;;;;8.54;100.00;100729.66;5104340;28;20102;-68
2022/11/25 00:58:55;;;;;;;21.80;4.35;;;;;;;8.58;100.00;100725.34;5101109;28;20135;-67
2022/11/25 01:01:20;;;;;;;21.23;4.05;;;;;;;8.62;100.00;100732.41;5096982;28;20032;-68
2022/11/25 01:03:48;;;;;;;22.73;4.35;;;;;;;8.61;100.00;100740.31;5104248;28;20043;-67
2022/11/25 01:06:14;;;;;;;22.42;3.90;;;;;;;8.63;100.00;100738.56;5101616;28;20055;-68
2022/11/25 01:08:39;;;;;;;22.55;4.18;;;;;;;8.61;100.00;100732.41;5101811;28;20079;-68
2022/11/25 01:11:07;;;;;;;22.92;3.95;;;;;;;8.62;100.00;100739.41;5103315;28;20028;-68
2022/11/25 01:13:33;;;;;;;21.42;4.10;;;;;;;8.68;100.00;100734.22;5102246;28;20378;-69
2022/11/25 01:16:03;;;;;;;22.40;3.88;;;;;;;8.64;100.00;100735.94;5103915;28;20026;-68
2022/11/25 01:18:29;;;;;;;24.00;4.30;;;;;;;8.73;100.00;100741.28;5101535;28;20111;-69
2022/11/25 01:20:55;;;;;;;22.90;4.55;;;;;;;8.65;100.00;100745.63;5104448;28;20125;-68
2022/11/25 01:23:20;;;;;;;23.38;4.25;;;;;;;8.71;100.00;100734.25;5096826;28;20084;-68
2022/11/25 01:25:45;;;;;;;22.30;4.00;;;;;;;8.66;100.00;100741.22;5104109;28;20057;-68
2022/11/25 01:28:12;;;;;;;21.27;4.07;;;;;;;8.68;100.00;100742.13;5100829;28;20430;-68
2022/11/25 01:30:38;;;;;;;21.50;3.70;;;;;;;8.68;100.00;100743.00;5102567;28;20475;-69
2022/11/25 01:33:03;;;;;;;21.27;4.10;;;;;;;8.70;100.00;100749.16;5103444;28;20039;-69
2022/11/25 01:35:29;;;;;;;23.67;4.28;;;;;;;8.71;100.00;100753.56;5101416;28;20028;-69
2022/11/25 01:37:54;;;;;;;22.88;4.30;;;;;;;8.77;100.00;100762.44;5104500;28;20035;-68
2022/11/25 01:40:19;;;;;;;20.67;3.83;;;;;;;8.80;100.00;100762.47;5101052;28;20028;-69
2022/11/25 01:42:47;;;;;;;22.23;3.97;;;;;;;8.81;100.00;100759.84;5103391;28;20035;-69
2022/11/25 01:45:21;;;;;;;23.33;4.30;;;;;;;8.82;100.00;100758.06;5101844;28;20031;-69
2022/11/25 01:47:50;;;;;;;21.10;3.75;;;;;;;8.79;100.00;100773.88;5105872;28;20039;-68
2022/11/25 01:50:20;;;;;;;20.60;4.28;;;;;;;8.82;100.00;100766.84;5105128;28;20151;-67
2022/11/25 01:52:49;;;;;;;20.58;3.90;;;;;;;8.84;100.00;100775.69;5107089;28;20027;-68
2022/11/25 01:55:19;;;;;;;20.35;3.97;;;;;;;8.91;100.00;100787.16;5105239;27;20030;-68
2022/11/25 01:57:55;;;;;;;24.40;4.45;;;;;;;8.89;100.00;100788.91;5107358;28;20423;-68
2022/11/25 02:00:21;;;;;;;21.40;4.00;;;;;;;8.84;100.00;100783.59;5100096;28;20107;-67
2022/11/25 02:02:48;;;;;;;21.10;3.88;;;;;;;8.88;100.00;100787.13;5107288;28;20070;-68
2022/11/25 02:05:16;;;;;;;22.52;4.28;;;;;;;8.97;100.00;100794.25;5105240;28;20069;-68
2022/11/25 02:07:46;;;;;;;20.83;3.72;;;;;;;9.06;100.00;100807.53;5106174;28;20040;-68
2022/11/25 02:10:20;;;;;;;20.15;3.75;;;;;;;9.03;100.00;100808.38;5105282;28;20024;-69
2022/11/25 02:12:46;;;;;;;21.95;4.10;;;;;;;9.07;100.00;100804.00;5106671;28;20705;-73
2022/11/25 02:15:12;;;;;;;21.95;4.10;;;;;;;9.03;100.00;100808.38;5105468;28;20101;-69
2022/11/25 02:17:38;;;;;;;22.00;3.88;;;;;;;9.11;100.00;100821.63;5104391;28;20036;-71
2022/11/25 02:20:14;;;;;;;20.05;4.07;;;;;;;9.11;100.00;100812.84;5105322;28;20031;-70
2022/11/25 02:23:16;;;;;;;20.40;3.90;;;;;;;9.08;100.00;100817.22;5106234;28;20419;-73
2022/11/25 02:25:44;;;;;;;23.77;4.30;;;;;;;8.98;100.00;100815.34;5104778;28;20054;-69
2022/11/25 02:28:15;;;;;;;22.40;4.25;;;;;;;8.66;100.00;100822.91;5105569;27;20534;-70
2022/11/25 02:30:41;;;;;;;24.13;4.18;;;;;;;8.42;100.00;100818.19;5105653;28;20020;-68
2022/11/25 02:33:06;;;;;;;24.05;4.32;;;;;;;8.34;100.00;100823.34;5104375;28;20089;-68
2022/11/25 02:35:38;;;;;;;26.15;4.43;;;;;;;8.17;100.00;100829.28;5104653;28;20051;-75
2022/11/25 02:38:12;;;;;;;23.70;4.65;;;;;;;8.01;100.00;100832.56;5106063;27;20475;-75
2022/11/25 02:41:06;;;;;;;21.73;4.13;;;;;;;7.89;100.00;100832.38;5105083;28;20023;-79
2022/11/25 02:43:32;;;;;;;24.77;4.50;;;;;;;7.85;100.00;100832.34;5075632;28;20058;-79
2022/11/25 02:46:00;;;;;;;23.40;4.50;;;;;;;7.83;100.00;100838.44;5106710;28;20470;-79
2022/11/25 02:48:29;;;;;;;26.73;4.38;;;;;;;7.78;100.00;100842.75;5103574;28;20020;-74
2022/11/25 02:50:54;;;;;;;22.42;4.00;;;;;;;7.74;100.00;100833.03;5106939;28;20019;-71
2022/11/25 02:53:20;;;;;;;22.83;4.85;;;;;;;7.71;100.00;100825.09;5103165;28;20485;-69
2022/11/25 02:55:46;;;;;;;23.30;4.50;;;;;;;7.67;100.00;100822.41;5106171;28;20028;-67
2022/11/25 02:58:12;;;;;;;24.23;4.53;;;;;;;7.66;100.00;100819.75;5104099;28;20467;-67
2022/11/25 03:00:39;;;;;;;22.48;4.20;;;;;;;7.66;100.00;100804.84;5104691;28;20101;-67
2022/11/25 03:03:04;;;;;;;23.38;4.45;;;;;;;7.63;100.00;100780.22;5105734;28;20065;-68
2022/11/25 03:05:30;;;;;;;23.75;4.55;;;;;;;7.61;100.00;100760.91;5103436;28;20125;-70
2022/11/25 03:07:55;;;;;;;24.58;4.80;;;;;;;7.59;100.00;100754.75;5105073;28;20066;-67
2022/11/25 03:10:21;;;;;;;23.85;4.55;;;;;;;7.58;100.00;100752.97;5103074;28;20028;-67
2022/11/25 03:12:47;;;;;;;25.30;4.70;;;;;;;7.55;100.00;100761.69;5105913;28;20040;-67
2022/11/25 03:15:12;;;;;;;23.67;4.53;;;;;;;7.53;100.00;100770.41;5104049;28;20027;-67
2022/11/25 03:17:38;;;;;;;23.17;4.43;;;;;;;7.50;100.00;100784.44;5104520;28;20024;-67
2022/11/25 03:20:07;;;;;;;24.73;4.15;;;;;;;7.43;100.00;100799.22;5105206;28;20035;-67
2022/11/25 03:22:33;;;;;;;23.15;4.35;;;;;;;7.41;100.00;100802.69;5103503;28;20381;-67
2022/11/25 03:24:59;;;;;;;23.48;4.32;;;;;;;7.42;100.00;100807.09;5105873;28;20028;-68
2022/11/25 03:27:24;;;;;;;21.17;4.10;;;;;;;7.40;100.00;100793.03;5102604;28;20051;-67
2022/11/25 03:29:50;;;;;;;22.33;3.85;;;;;;;7.38;100.00;100781.59;5104429;28;20034;-68
2022/11/25 03:32:15;;;;;;;21.60;4.10;;;;;;;7.34;100.00;100799.06;5102142;28;20055;-67
2022/11/25 03:34:40;;;;;;;21.33;4.32;;;;;;;7.31;100.00;100814.78;5104356;28;20032;-67
2022/11/25 03:37:06;;;;;;;22.75;4.30;;;;;;;7.29;100.00;100835.78;5104454;28;20051;-68
2022/11/25 03:39:32;;;;;;;20.88;3.88;;;;;;;7.24;100.00;100840.09;5103443;28;20078;-67
2022/11/25 03:41:57;;;;;;;20.88;3.80;;;;;;;7.18;100.00;100831.19;5104555;28;20127;-68
2022/11/25 03:44:23;;;;;;;20.85;3.97;;;;;;;7.23;100.00;100840.06;5101207;28;20028;-67
2022/11/25 03:46:48;;;;;;;20.83;3.50;;;;;;;7.20;100.00;100845.28;5105681;28;20063;-69
2022/11/25 03:49:13;;;;;;;17.65;3.30;;;;;;;7.20;100.00;100838.25;5103237;28;20043;-67
2022/11/25 03:51:39;;;;;;;20.98;3.80;;;;;;;7.20;100.00;100835.63;5104217;28;20408;-67
2022/11/25 03:54:04;;;;;;;19.60;3.60;;;;;;;7.16;100.00;100836.44;5104562;28;20381;-67
2022/11/25 03:56:30;;;;;;;19.80;3.90;;;;;;;7.15;100.00;100838.19;5102381;28;20028;-67
2022/11/25 03:58:55;;;;;;;19.83;3.47;;;;;;;7.11;100.00;100854.75;5105594;28;20035;-67
2022/11/25 04:01:20;;;;;;;20.00;3.63;;;;;;;7.09;100.00;100848.59;5101914;28;20031;-67
2022/11/25 04:03:46;;;;;;;18.02;3.40;;;;;;;7.09;100.00;100858.22;5104575;28;20027;-67
2022/11/25 04:06:11;;;;;;;19.38;3.40;;;;;;;7.05;100.00;100856.38;5102099;28;20066;-67
2022/11/25 04:08:36;;;;;;;18.15;3.25;;;;;;;7.05;100.00;100862.53;5102998;28;20047;-68
2022/11/25 04:11:02;;;;;;;18.38;3.55;;;;;;;7.03;100.00;100865.97;5103864;28;20061;-68
2022/11/25 04:13:28;;;;;;;18.73;3.35;;;;;;;7.00;100.00;100863.31;5101930;28;20454;-68
2022/11/25 04:15:53;;;;;;;19.25;3.47;;;;;;;6.94;100.00;100869.31;5103989;28;20039;-72
2022/11/25 04:18:19;;;;;;;15.75;3.03;;;;;;;6.88;100.00;100875.34;5067006;28;20115;-75
2022/11/25 04:20:45;;;;;;;18.92;3.30;;;;;;;6.84;100.00;100870.88;5104245;28;20028;-69
2022/11/25 04:23:11;;;;;;;18.88;3.20;;;;;;;6.72;100.00;100881.16;5103131;28;20098;-69
2022/11/25 04:25:37;;;;;;;16.73;3.20;;;;;;;6.74;100.00;100882.06;5103032;28;20032;-69
2022/11/25 04:28:03;;;;;;;14.82;3.03;;;;;;;6.69;100.00;100883.72;5104209;28;20028;-71
2022/11/25 04:30:29;;;;;;;17.88;3.20;;;;;;;6.66;100.00;100894.16;5101933;28;20409;-72
2022/11/25 04:32:54;;;;;;;17.92;3.35;;;;;;;6.66;100.00;100891.53;5105197;28;20027;-68
2022/11/25 04:35:20;;;;;;;15.68;3.10;;;;;;;6.67;100.00;100895.91;5101772;28;20044;-71
2022/11/25 04:37:45;;;;;;;15.35;2.80;;;;;;;6.64;100.00;100904.63;5104130;28;20031;-69
2022/11/25 04:40:11;;;;;;;15.48;3.45;;;;;;;6.65;100.00;100911.66;5103119;28;20027;-75
2022/11/25 04:42:38;;;;;;;15.98;3.30;;;;;;;6.67;100.00;100922.19;5102712;28;20032;-82
2022/11/25 04:45:08;;;;;;;16.70;2.90;;;;;;;6.72;100.00;100917.94;5103780;28;20034;-82
2022/11/25 04:47:34;;;;;;;16.38;2.90;;;;;;;6.71;100.00;100911.75;5102338;28;20020;-69
2022/11/25 04:49:59;;;;;;;17.13;2.95;;;;;;;6.68;100.00;100908.19;5104382;28;20383;-72
2022/11/25 04:52:25;;;;;;;16.10;3.20;;;;;;;6.65;100.00;100916.03;5101124;28;20086;-71
2022/11/25 04:54:50;;;;;;;13.45;3.20;;;;;;;6.62;100.00;100915.09;5104723;28;20028;-83
2022/11/25 04:57:16;;;;;;;13.15;3.00;;;;;;;6.59;100.00;100907.13;5102174;28;20122;-82
2022/11/25 04:59:42;;;;;;;20.63;3.15;;;;;;;6.58;100.00;100915.91;5103239;28;20062;-69
2022/11/25 05:02:20;;;;;;;17.80;3.47;;;;;;;6.60;100.00;100932.56;5103224;28;20478;-69
2022/11/25 05:04:47;;;;;;;18.90;3.78;;;;;;;6.59;100.00;100936.03;5103731;28;20031;-70
2022/11/25 05:07:13;;;;;;;18.38;3.35;;;;;;;6.57;100.00;100932.50;5102189;28;20040;-71
2022/11/25 05:09:39;;;;;;;17.90;3.53;;;;;;;6.55;100.00;100931.59;5102613;28;20044;-71
2022/11/25 05:12:06;;;;;;;18.08;3.78;;;;;;;6.55;100.00;100939.47;5103686;28;20031;-68
2022/11/25 05:14:31;;;;;;;18.85;4.20;;;;;;;6.49;100.00;100934.06;5101344;28;20490;-70
2022/11/25 05:16:56;;;;;;;18.77;4.40;;;;;;;6.44;100.00;100936.59;5104648;28;20106;-70
2022/11/25 05:19:22;;;;;;;19.58;4.40;;;;;;;6.39;100.00;100942.59;5079351;28;20039;-69
2022/11/25 05:21:47;;;;;;;19.58;4.50;;;;;;;6.38;100.00;100935.59;5105068;28;20043;-69
2022/11/25 05:24:13;;;;;;;19.00;4.75;;;;;;;6.39;100.00;100937.34;5106502;28;20024;-69
2022/11/25 05:26:38;;;;;;;20.55;4.68;;;;;;;6.34;100.00;100941.59;5106378;28;20064;-68
2022/11/25 05:29:03;;;;;;;21.98;5.18;;;;;;;6.37;100.00;100945.19;5107581;28;20023;-71
2022/11/25 05:31:29;;;;;;;22.00;5.28;;;;;;;6.31;100.00;100939.78;5105215;28;20032;-70
2022/11/25 05:33:54;;;;;;;20.58;5.35;;;;;;;6.27;100.00;100943.19;5108194;28;20115;-71
2022/11/25 05:36:19;;;;;;;20.85;5.70;;;;;;;6.22;100.00;100944.84;5105205;28;20032;-69
2022/11/25 05:38:45;;;;;;;19.92;5.55;;;;;;;6.19;100.00;100943.00;5107242;28;20028;-72
2022/11/25 05:41:10;;;;;;;24.40;6.30;;;;;;;6.13;100.00;100948.13;5106412;28;20110;-75
2022/11/25 05:43:36;;;;;;;21.80;6.20;;;;;;;6.05;100.00;100950.53;5105693;28;20117;-82
2022/11/25 05:46:08;;;;;;;23.75;6.30;;;;;;;6.04;100.00;100955.75;5107852;28;20473;-70
2022/11/25 05:48:34;;;;;;;22.77;6.80;;;;;;;6.03;100.00;100954.88;5105418;28;20113;-82
2022/11/25 05:51:00;;;;;;;24.02;6.90;;;;;;;6.01;100.00;100956.56;5107751;28;20055;-81
2022/11/25 05:53:26;;;;;;;25.95;7.30;;;;;;;6.03;100.00;100964.47;5104606;28;20111;-76
2022/11/25 05:56:00;;;;;;;24.92;7.68;;;;;;;6.05;100.00;100968.03;5107880;28;20173;-69
2022/11/25 05:58:27;;;;;;;25.73;7.63;;;;;;;6.04;100.00;100976.75;5100415;28;20016;-74
2022/11/25 06:00:53;;;;;;;25.00;8.10;;;;;;;6.03;100.00;100970.63;5108253;28;20024;-70
2022/11/25 06:03:19;;;;;;;25.92;8.07;;;;;;;6.00;100.00;100972.28;5103498;28;20032;-72
2022/11/25 06:05:44;;;;;;;24.48;8.45;;;;;;;6.06;100.00;100975.94;5106423;28;20364;-76
2022/11/25 06:08:10;;;;;;;25.42;8.48;;;;;;;6.07;100.00;100969.88;5105927;28;20043;-71
2022/11/25 06:10:41;;;;;;;26.20;8.68;;;;;;;6.01;100.00;100976.69;5105059;28;20111;-71
2022/11/25 06:13:08;;;;;;;26.65;9.27;;;;;;;5.96;100.00;100979.16;5106278;28;20110;-74
2022/11/25 06:15:33;;;;;;;26.65;9.30;;;;;;;5.96;100.00;100980.91;5104892;28;20120;-72
2022/11/25 06:17:59;;;;;;;25.48;9.43;;;;;;;5.92;100.00;100978.19;5107440;28;20047;-73
2022/11/25 06:20:25;;;;;;;29.15;9.98;;;;;;;5.93;100.00;100990.47;5103891;28;20094;-79
2022/11/25 06:22:51;;;;;;;27.08;9.95;;;;;;;5.87;100.00;100995.56;5107233;28;20535;-75
2022/11/25 06:25:17;;;;;;;30.17;10.18;;;;;;;5.86;100.00;101006.88;5104938;28;20032;-76
2022/11/25 06:27:42;;;;;;;27.13;9.80;;;;;;;5.88;100.00;100994.72;5105946;28;20024;-76
2022/11/25 06:30:08;;;;;;;28.15;9.80;;;;;;;5.85;100.00;101002.47;5104763;28;20533;-75
2022/11/25 06:32:33;;;;;;;29.45;10.35;;;;;;;5.83;100.00;101009.44;5104037;28;20186;-71
2022/11/25 06:34:58;;;;;;;28.73;10.10;;;;;;;5.82;100.00;101017.28;5106869;28;20015;-75
2022/11/25 06:37:24;;;;;;;27.23;10.07;;;;;;;5.78;100.00;101016.28;5103598;28;20072;-81
2022/11/25 06:39:49;;;;;;;28.15;10.50;;;;;;;5.79;100.00;101015.44;5106325;28;20036;-70
2022/11/25 06:42:14;;;;;;;28.35;9.95;;;;;;;5.83;100.00;101019.06;5104642;28;20027;-72
2022/11/25 06:44:40;;;;;;;27.50;10.15;;;;;;;5.80;100.00;101019.84;5103984;28;20036;-69
2022/11/25 06:47:05;;;;;;;27.83;9.18;;;;;;;5.81;100.00;101023.34;5106364;28;20016;-82
2022/11/25 06:49:30;;;;;;;25.80;8.43;;;;;;;5.78;100.00;101021.53;5104043;28;20485;-83
2022/11/25 06:51:55;;;;;;;27.77;8.70;;;;;;;5.75;100.00;101026.69;5107956;28;20501;-82
2022/11/25 06:54:21;;;;;;;24.65;8.10;;;;;;;5.72;100.00;101024.91;5104510;28;20467;-82
2022/11/25 06:56:52;;;;;;;24.25;7.63;;;;;;;5.69;100.00;101031.78;5104668;28;20517;-82
2022/11/25 06:59:19;;;;;;;28.35;8.38;;;;;;;5.68;100.00;101036.16;5099102;28;20330;-74
2022/11/25 07:01:45;;;;;;;26.92;7.93;;;;;;;5.70;100.00;101028.31;5101499;28;20547;-75
2022/11/25 07:04:10;;;;;;;25.33;8.05;;;;;;;5.71;100.00;101035.38;5099546;28;20115;-75
2022/11/25 07:06:36;;;;;;;28.50;7.82;;;;;;;5.63;100.00;101036.88;5099002;28;20433;-77
2022/11/25 07:09:02;;;;;;;23.55;7.43;;;;;;;5.66;100.00;101039.56;5096847;28;20044;-75
2022/11/25 07:11:33;;;;;;;24.83;7.40;;;;;;;5.65;100.00;101050.91;5100980;28;20024;-77
2022/11/25 07:14:10;;;;;;;26.55;7.40;;;;;;;5.62;100.00;101050.81;5094270;28;20111;-74
2022/11/25 07:16:37;;;;;;;25.13;7.28;;;;;;;5.59;100.00;101052.53;5099732;28;20024;-74
2022/11/25 07:19:03;;;;;;;24.67;7.05;;;;;;;5.65;100.00;101056.16;5097054;28;20024;-73
2022/11/25 07:21:30;;;;;;;25.15;7.25;;;;;;;5.66;100.00;101066.69;5101227;28;20035;-81
2022/11/25 07:23:58;;;;;;;26.05;7.53;;;;;;;5.62;100.00;101066.56;5097375;28;20028;-75
2022/11/25 07:26:26;;;;;;;26.00;7.70;;;;;;;5.59;100.00;101076.13;5095667;28;20115;-68
2022/11/25 07:28:54;;;;;;;25.55;7.55;;;;;;;5.65;100.00;101077.13;5102796;28;20020;-68
2022/11/25 07:31:29;;;;;;;24.23;7.63;;;;;;;5.59;100.00;101084.00;5097045;28;20386;-69
2022/11/25 07:34:00;;;;;;;26.10;7.65;;;;;;;5.60;100.00;101084.88;5098785;28;20432;-68
2022/11/25 07:36:26;;;;;;;24.05;7.47;;;;;;;5.58;100.00;101091.81;5098969;28;20020;-66
2022/11/25 07:38:52;;;;;;;22.80;7.18;;;;;;;5.56;100.00;101097.03;5101681;28;20030;-68
2022/11/25 07:41:23;;;;;;;25.48;7.40;;;;;;;5.55;100.00;101104.84;5099628;28;20028;-68
2022/11/25 07:43:53;;;;;;;25.30;7.60;;;;;;;5.54;100.00;101103.94;5094152;28;20020;-67
2022/11/25 07:46:31;;;;;;;25.92;8.00;;;;;;;5.55;100.00;101112.72;5099075;28;20027;-68
2022/11/25 07:48:59;;;;;;;27.20;7.90;;;;;;;5.55;100.00;101124.09;5099550;28;20424;-67
2022/11/25 07:51:27;;;;;;;24.85;7.75;;;;;;;5.63;100.00;101131.31;5097762;28;20478;-66
2022/11/25 07:53:55;;;;;;;27.67;7.93;;;;;;;5.65;100.00;101140.09;5097513;28;20027;-68
2022/11/25 07:56:20;;;;;;;26.45;7.90;;;;;;;5.63;100.00;101133.91;5096290;28;20123;-66
2022/11/25 07:58:46;;;;;;;24.92;7.85;;;;;;;5.67;100.00;101141.03;5097516;28;20115;-66
2022/11/25 08:01:15;;;;;;;25.50;7.47;;;;;;;5.76;100.00;101143.91;5098788;28;20046;-69
2022/11/25 08:03:42;;;;;;;27.38;8.27;;;;;;;5.86;100.00;101145.97;5094912;28;20036;-69
2022/11/25 08:06:14;;;;;;;24.70;7.80;;;;;;;5.93;100.00;101153.16;5100295;28;20073;-70
2022/11/25 08:08:41;;;;;;;26.05;8.40;;;;;;;5.98;100.00;101147.19;5095980;28;20048;-69
2022/11/25 08:11:12;;;;;;;25.70;8.07;;;;;;;6.04;100.00;101163.09;5100203;28;20054;-68
2022/11/25 08:13:37;;;;;;;26.13;8.02;;;;;;;6.09;100.00;101164.13;5091567;28;20063;-67
2022/11/25 08:16:04;;;;;;;24.88;8.05;;;;;;;6.12;100.00;101166.84;5096794;28;20068;-67
2022/11/25 08:18:29;;;;;;;24.13;7.75;;;;;;;6.23;100.00;101172.38;5098668;28;20031;-70
2022/11/25 08:21:02;;;;;;;25.83;7.80;;;;;;;6.28;100.00;101179.53;5097932;28;20032;-69
2022/11/25 08:23:27;;;;;;;25.58;7.65;;;;;;;6.30;100.00;101174.31;5097104;28;20031;-69
2022/11/25 08:25:53;;;;;;;24.45;7.97;;;;;;;6.34;100.00;101180.56;5098448;28;20394;-69
2022/11/25 08:28:18;;;;;;;24.90;7.60;;;;;;;6.39;100.00;101181.56;5098783;28;20077;-70
2022/11/25 08:30:43;;;;;;;23.63;7.40;;;;;;;6.40;100.00;101181.59;5097908;28;20094;-70
2022/11/25 08:33:09;;;;;;;22.77;7.05;;;;;;;6.50;100.00;101185.38;5095749;28;20043;-71
2022/11/25 08:35:37;;;;;;;25.98;7.63;;;;;;;6.53;100.00;101188.06;5097660;28;20108;-70
2022/11/25 08:38:05;;;;;;;23.33;7.40;;;;;;;6.57;100.00;101189.94;5099020;28;20028;-71
2022/11/25 08:40:32;;;;;;;23.02;7.07;;;;;;;6.67;100.00;101187.53;5098615;28;20059;-71
2022/11/25 08:42:57;;;;;;;24.67;7.10;;;;;;;6.73;100.00;101182.47;5095630;28;20058;-82
2022/11/25 08:45:23;;;;;;;22.50;6.80;;;;;;;6.84;100.00;101182.72;5097902;28;20483;-81
2022/11/25 08:47:48;;;;;;;23.30;6.75;;;;;;;6.84;100.00;101193.22;5099706;28;20032;-82
2022/11/25 08:50:14;;;;;;;22.20;6.82;;;;;;;6.86;100.00;101194.13;5096103;28;20032;-83
2022/11/25 08:52:40;;;;;;;23.38;6.55;;;;;;;6.91;100.00;101195.16;5098867;28;20483;-81
2022/11/25 08:55:06;;;;;;;22.33;6.38;;;;;;;7.01;100.00;101202.41;5099792;28;20030;-82
2022/11/25 08:57:31;;;;;;;24.10;6.85;;;;;;;7.15;100.00;101208.91;5107836;28;20027;-82
2022/11/25 08:59:56;;;;;;;22.08;6.03;;;;;;;7.32;100.00;101197.88;5109578;28;20028;-82
2022/11/25 09:02:22;;;;;;;21.23;5.72;;;;;;;7.46;100.00;101200.84;5110758;27;20027;-82
2022/11/25 09:04:47;;;;;;;20.35;5.43;;;;;;;7.61;100.00;101197.66;5108799;28;20024;-82
2022/11/25 09:07:13;;;;;;;21.33;5.63;;;;;;;7.70;100.00;101211.00;5111314;27;20027;-82
2022/11/25 09:09:38;;;;;;;18.88;5.22;;;;;;;7.76;100.00;101210.25;5107968;27;20036;-82
2022/11/25 09:12:04;;;;;;;19.45;5.50;;;;;;;7.76;100.00;101212.91;5110257;28;20043;-81
2022/11/25 09:14:29;;;;;;;20.73;5.50;;;;;;;7.82;100.00;101219.19;5109210;27;20119;-82
2022/11/25 09:16:55;;;;;;;20.52;5.55;;;;;;;7.91;100.00;101218.50;5109443;28;20024;-79
2022/11/25 09:19:22;;;;;;;19.73;5.40;;;;;;;8.02;100.00;101217.00;5110338;27;20466;-82
2022/11/25 09:21:47;;;;;;;21.15;5.28;;;;;;;8.30;100.00;101220.19;5108255;28;20024;-81
2022/11/25 09:24:13;;;;;;;20.30;4.93;;;;;;;8.37;100.00;101219.44;5111444;28;20034;-82
2022/11/25 09:26:39;;;;;;;20.70;5.05;;;;;;;8.23;100.00;101228.81;5107939;27;20479;-82
2022/11/25 09:29:05;;;;;;;21.33;5.13;;;;;;;8.26;100.00;101228.88;5110449;28;20035;-81
2022/11/25 09:31:31;;;;;;;19.48;5.35;;;;;;;8.26;100.00;101236.78;5109122;27;20057;-78
2022/11/25 09:33:56;;;;;;;20.50;5.30;;;;;;;8.32;100.00;101236.00;5103121;28;20478;-69
2022/11/25 09:36:23;;;;;;;19.95;5.20;;;;;;;8.44;100.00;101243.25;5106939;28;20032;-67
2022/11/25 09:38:49;;;;;;;21.42;5.32;;;;;;;8.49;100.00;101239.91;5101263;28;20375;-68
2022/11/25 09:41:14;;;;;;;20.45;5.25;;;;;;;8.58;100.00;101241.81;5105888;28;20032;-71
2022/11/25 09:47:19;;;;;;;19.42;5.07;;;;;;;9.10;100.00;101262.06;5101347;28;20119;-69
2022/11/25 09:50:02;;;;;;;20.23;5.05;;;;;;;9.31;100.00;101262.41;5106041;28;20027;-65
2022/11/25 09:52:52;;;;;;;20.70;4.97;;;;;;;9.30;100.00;101268.56;5100126;28;20035;-69
2022/11/25 09:55:23;;;;;;;20.95;5.32;;;;;;;9.26;100.00;101274.63;5097882;28;20420;-67
2022/11/25 09:58:20;;;;;;;20.73;4.85;;;;;;;9.18;100.00;101274.50;5098811;28;20067;-69
2022/11/25 10:00:49;;;;;;;20.52;4.78;;;;;;;9.17;100.00;101270.09;5103463;28;20074;-72
2022/11/25 10:03:37;;;;;;;18.48;4.60;;;;;;;9.48;100.00;101272.34;5100595;28;20024;-71
2022/11/25 10:06:17;;;;;;;18.65;4.40;;;;;;;9.51;100.00;101283.84;5098437;28;20106;-73
2022/11/25 10:08:47;;;;;;;19.38;4.80;;;;;;;9.75;100.00;101285.97;5095962;28;20044;-66
2022/11/25 10:11:20;;;;;;;20.83;4.53;;;;;;;10.04;100.00;101282.84;5102045;28;20028;-73
2022/11/25 10:13:54;;;;;;;18.55;4.40;;;;;;;10.33;100.00;101290.28;5096446;28;20031;-70
2022/11/25 10:16:35;;;;;;;18.75;4.43;;;;;;;10.54;100.00;101294.06;5100944;28;20130;-70
2022/11/25 10:19:44;;;;;;;19.85;4.18;;;;;;;10.60;100.00;101302.06;5101018;28;20368;-70
2022/11/25 10:22:30;;;;;;;19.38;3.83;;;;;;;10.86;100.00;101312.94;5057661;28;20127;-70
2022/11/25 10:24:59;;;;;;;17.73;3.80;;;;;;;11.18;100.00;101330.00;5097945;28;20095;-81
2022/11/25 10:27:43;;;;;;;17.38;3.90;;;;;;;11.43;100.00;101324.06;5102344;28;20429;-80
2022/11/25 10:30:38;;;;;;;19.08;4.00;;;;;;;11.53;100.00;101325.03;5096413;28;20058;-81
2022/11/25 10:33:12;;;;;;;18.75;3.92;;;;;;;11.78;100.00;101330.50;5096143;28;20044;-69
2022/11/25 10:35:42;;;;;;;18.02;3.80;;;;;;;12.12;100.00;101329.00;5099532;28;20047;-68
2022/11/25 10:38:17;;;;;;;18.50;3.85;;;;;;;12.46;100.00;101329.16;5097943;28;20022;-68
2022/11/25 10:40:47;;;;;;;19.05;3.70;;;;;;;12.46;100.00;101321.19;5091662;28;20467;-71
2022/11/25 10:43:13;;;;;;;18.00;3.70;;;;;;;12.83;100.00;101329.31;5096616;28;20023;-69
2022/11/25 10:45:52;;;;;;;16.40;3.38;;;;;;;13.30;100.00;101340.88;5097891;28;20475;-68
2022/11/25 10:48:39;;;;;;;14.82;3.50;;;;;;;13.74;100.00;101336.50;5097081;28;20027;-68
2022/11/25 10:51:23;;;;;;;16.60;3.28;;;;;;;13.75;100.00;101335.63;5099317;28;20114;-68
2022/11/25 10:54:08;;;;;;;20.52;4.13;;;;;;;13.88;100.00;101347.13;5099401;28;20073;-68
2022/11/25 10:56:47;;;;;;;15.68;3.20;;;;;;;14.15;100.00;101343.50;5099757;28;20028;-67
2022/11/25 10:59:29;;;;;;;18.20;3.30;;;;;;;14.69;100.00;101353.09;5101812;28;20019;-75
2022/11/25 11:02:28;;;;;;;17.73;3.37;;;;;;;14.88;100.00;101360.13;5098829;28;20032;-69
2022/11/25 11:05:00;;;;;;;16.38;3.47;;;;;;;15.00;100.00;101356.50;5078236;28;20047;-69
2022/11/25 11:07:29;;;;;;;16.52;3.22;;;;;;;15.01;100.00;101357.38;5099488;28;20438;-71
2022/11/25 11:10:25;;;;;;;15.13;3.25;;;;;;;15.19;100.00;101351.03;5094109;28;20075;-78
2022/11/25 11:12:58;;;;;;;17.10;3.40;;;;;;;15.14;100.00;101359.97;5098375;28;20055;-76
2022/11/25 11:15:24;;;;;;;18.13;3.38;;;;;;;15.44;100.00;101365.97;5098237;28;20114;-71
2022/11/25 11:17:50;;;;;;;18.30;3.45;;;;;;;15.89;100.00;101365.63;5101506;28;20039;-70
2022/11/25 11:20:30;;;;;;;16.92;3.72;;;;;;;16.33;100.00;101377.59;5095881;28;20487;-70
2022/11/25 11:23:09;;;;;;;14.43;3.20;;;;;;;15.81;100.00;101378.13;5097005;28;20423;-71
2022/11/25 11:25:39;;;;;;;16.42;2.97;;;;;;;16.20;100.00;101381.31;5096498;28;20028;-70
2022/11/25 11:28:26;;;;;;;15.18;3.05;;;;;;;16.01;100.00;101380.63;5096981;28;20020;-80
2022/11/25 11:30:58;;;;;;;17.13;3.22;;;;;;;15.72;100.00;101388.84;5092883;28;20032;-75
2022/11/25 11:33:34;;;;;;;14.55;2.90;;;;;;;15.61;100.00;101397.81;5094539;28;20024;-79